sensor_id;sensor_type;location;lat;lon;timestamp;pressure;altitude;pressure_sealevel;temperature;humidity
61359;BME280;47228;46.762;23.598;2023-12-04T00:00:08;97903.17;;;-2.17;67.10
61359;BME280;47228;46.762;23.598;2023-12-04T00:02:56;97902.98;;;-2.22;67.21
61359;BME280;47228;46.762;23.598;2023-12-04T00:05:24;97905.15;;;-2.26;67.08
61359;BME280;47228;46.762;23.598;2023-12-04T00:07:53;97907.39;;;-2.31;66.97
61359;BME280;47228;46.762;23.598;2023-12-04T00:10:21;97911.80;;;-2.34;67.25
61359;BME280;47228;46.762;23.598;2023-12-04T00:12:49;97915.98;;;-2.37;67.23
61359;BME280;47228;46.762;23.598;2023-12-04T00:15:19;97917.86;;;-2.39;67.45
61359;BME280;47228;46.762;23.598;2023-12-04T00:17:47;97919.05;;;-2.39;67.39
61359;BME280;47228;46.762;23.598;2023-12-04T00:20:16;97917.84;;;-2.39;67.37
61359;BME280;47228;46.762;23.598;2023-12-04T00:22:45;97919.69;;;-2.40;67.26
61359;BME280;47228;46.762;23.598;2023-12-04T00:25:13;97918.45;;;-2.43;67.31
61359;BME280;47228;46.762;23.598;2023-12-04T00:27:41;97919.59;;;-2.44;67.24
61359;BME280;47228;46.762;23.598;2023-12-04T00:30:12;97923.89;;;-2.46;67.20
61359;BME280;47228;46.762;23.598;2023-12-04T00:32:41;97923.16;;;-2.49;67.24
61359;BME280;47228;46.762;23.598;2023-12-04T00:35:09;97924.20;;;-2.48;67.25
61359;BME280;47228;46.762;23.598;2023-12-04T00:37:38;97933.09;;;-2.49;67.32
61359;BME280;47228;46.762;23.598;2023-12-04T00:40:07;97940.02;;;-2.49;67.37
61359;BME280;47228;46.762;23.598;2023-12-04T00:42:35;97941.60;;;-2.49;67.31
61359;BME280;47228;46.762;23.598;2023-12-04T00:45:04;97949.58;;;-2.49;67.15
61359;BME280;47228;46.762;23.598;2023-12-04T00:47:32;97952.54;;;-2.50;66.93
61359;BME280;47228;46.762;23.598;2023-12-04T00:50:01;97955.17;;;-2.50;67.01
61359;BME280;47228;46.762;23.598;2023-12-04T00:52:30;97956.19;;;-2.50;66.98
61359;BME280;47228;46.762;23.598;2023-12-04T00:55:01;97956.21;;;-2.50;66.84
61359;BME280;47228;46.762;23.598;2023-12-04T00:57:29;97961.53;;;-2.49;66.95
61359;BME280;47228;46.762;23.598;2023-12-04T00:59:57;97963.11;;;-2.47;67.18
61359;BME280;47228;46.762;23.598;2023-12-04T01:02:26;97970.45;;;-2.42;67.32
61359;BME280;47228;46.762;23.598;2023-12-04T01:04:54;97976.33;;;-2.37;67.35
61359;BME280;47228;46.762;23.598;2023-12-04T01:07:22;97974.80;;;-2.32;67.37
61359;BME280;47228;46.762;23.598;2023-12-04T01:09:50;97971.83;;;-2.27;67.49
61359;BME280;47228;46.762;23.598;2023-12-04T01:12:18;97973.23;;;-2.19;67.57
61359;BME280;47228;46.762;23.598;2023-12-04T01:14:46;97972.52;;;-2.15;67.34
61359;BME280;47228;46.762;23.598;2023-12-04T01:17:14;97969.75;;;-2.12;67.30
61359;BME280;47228;46.762;23.598;2023-12-04T01:19:42;97967.37;;;-2.10;66.95
61359;BME280;47228;46.762;23.598;2023-12-04T01:22:10;97961.77;;;-2.09;67.05
61359;BME280;47228;46.762;23.598;2023-12-04T01:24:39;97958.79;;;-2.09;66.99
61359;BME280;47228;46.762;23.598;2023-12-04T01:27:07;97959.58;;;-2.08;67.12
61359;BME280;47228;46.762;23.598;2023-12-04T01:29:35;97957.55;;;-2.06;67.17
61359;BME280;47228;46.762;23.598;2023-12-04T01:32:03;97961.91;;;-2.06;66.86
61359;BME280;47228;46.762;23.598;2023-12-04T01:34:32;97960.17;;;-2.09;66.64
61359;BME280;47228;46.762;23.598;2023-12-04T01:37:00;97958.63;;;-2.09;66.73
61359;BME280;47228;46.762;23.598;2023-12-04T01:39:28;97956.03;;;-2.09;66.71
61359;BME280;47228;46.762;23.598;2023-12-04T01:41:57;97956.80;;;-2.08;66.66
61359;BME280;47228;46.762;23.598;2023-12-04T01:44:25;97952.45;;;-2.08;66.69
61359;BME280;47228;46.762;23.598;2023-12-04T01:46:54;97948.63;;;-2.07;66.70
61359;BME280;47228;46.762;23.598;2023-12-04T01:49:24;97949.80;;;-2.07;66.76
61359;BME280;47228;46.762;23.598;2023-12-04T01:51:52;97955.14;;;-2.06;66.93
61359;BME280;47228;46.762;23.598;2023-12-04T01:54:21;97952.42;;;-2.04;66.91
61359;BME280;47228;46.762;23.598;2023-12-04T01:56:49;97951.64;;;-2.01;66.78
61359;BME280;47228;46.762;23.598;2023-12-04T01:59:17;97953.58;;;-1.99;66.54
61359;BME280;47228;46.762;23.598;2023-12-04T02:01:46;97951.55;;;-1.97;66.54
61359;BME280;47228;46.762;23.598;2023-12-04T02:04:15;97955.55;;;-1.95;66.83
61359;BME280;47228;46.762;23.598;2023-12-04T02:06:43;97958.73;;;-1.93;66.91
61359;BME280;47228;46.762;23.598;2023-12-04T02:09:12;97957.34;;;-1.90;66.78
61359;BME280;47228;46.762;23.598;2023-12-04T02:11:41;97955.93;;;-1.88;66.75
61359;BME280;47228;46.762;23.598;2023-12-04T02:14:10;97954.41;;;-1.86;66.60
61359;BME280;47228;46.762;23.598;2023-12-04T02:16:40;97956.08;;;-1.85;66.38
61359;BME280;47228;46.762;23.598;2023-12-04T02:19:12;97956.36;;;-1.84;66.61
61359;BME280;47228;46.762;23.598;2023-12-04T02:21:41;97958.00;;;-1.83;66.60
61359;BME280;47228;46.762;23.598;2023-12-04T02:24:10;97960.23;;;-1.82;66.52
61359;BME280;47228;46.762;23.598;2023-12-04T02:26:47;97965.30;;;-1.83;66.37
61359;BME280;47228;46.762;23.598;2023-12-04T02:29:43;97963.67;;;-1.84;66.34
61359;BME280;47228;46.762;23.598;2023-12-04T02:32:17;97963.98;;;-1.86;66.57
61359;BME280;47228;46.762;23.598;2023-12-04T02:34:47;97966.41;;;-1.89;66.18
61359;BME280;47228;46.762;23.598;2023-12-04T02:37:17;97969.46;;;-1.93;66.08
61359;BME280;47228;46.762;23.598;2023-12-04T02:39:47;97966.66;;;-1.97;65.94
61359;BME280;47228;46.762;23.598;2023-12-04T02:42:19;97970.64;;;-1.99;66.06
61359;BME280;47228;46.762;23.598;2023-12-04T02:44:47;97968.55;;;-1.99;66.19
61359;BME280;47228;46.762;23.598;2023-12-04T02:47:16;97965.99;;;-2.00;65.95
61359;BME280;47228;46.762;23.598;2023-12-04T02:49:44;97961.80;;;-2.00;66.03
61359;BME280;47228;46.762;23.598;2023-12-04T02:52:13;97964.27;;;-1.98;66.11
61359;BME280;47228;46.762;23.598;2023-12-04T02:54:41;97968.55;;;-1.97;66.17
61359;BME280;47228;46.762;23.598;2023-12-04T02:57:09;97968.81;;;-1.98;65.94
61359;BME280;47228;46.762;23.598;2023-12-04T02:59:37;97969.39;;;-1.99;66.00
61359;BME280;47228;46.762;23.598;2023-12-04T03:02:05;97971.77;;;-1.98;66.05
61359;BME280;47228;46.762;23.598;2023-12-04T03:04:34;97973.42;;;-1.97;66.24
61359;BME280;47228;46.762;23.598;2023-12-04T03:07:03;97975.07;;;-1.98;66.03
61359;BME280;47228;46.762;23.598;2023-12-04T03:09:31;97975.34;;;-2.00;65.97
61359;BME280;47228;46.762;23.598;2023-12-04T03:12:16;97977.52;;;-1.98;66.09
61359;BME280;47228;46.762;23.598;2023-12-04T03:14:45;97979.88;;;-1.98;66.04
61359;BME280;47228;46.762;23.598;2023-12-04T03:17:13;97986.80;;;-1.97;66.01
61359;BME280;47228;46.762;23.598;2023-12-04T03:19:41;97985.30;;;-1.96;66.11
61359;BME280;47228;46.762;23.598;2023-12-04T03:22:09;97982.70;;;-1.93;66.26
61359;BME280;47228;46.762;23.598;2023-12-04T03:24:38;97986.06;;;-1.92;66.07
61359;BME280;47228;46.762;23.598;2023-12-04T03:27:06;97991.32;;;-1.92;65.86
61359;BME280;47228;46.762;23.598;2023-12-04T03:29:34;97989.77;;;-1.92;65.77
61359;BME280;47228;46.762;23.598;2023-12-04T03:32:02;97990.14;;;-1.93;65.83
61359;BME280;47228;46.762;23.598;2023-12-04T03:34:30;97984.72;;;-1.92;65.84
61359;BME280;47228;46.762;23.598;2023-12-04T03:36:59;97979.35;;;-1.92;65.86
61359;BME280;47228;46.762;23.598;2023-12-04T03:39:27;97978.86;;;-1.90;65.82
61359;BME280;47228;46.762;23.598;2023-12-04T03:41:55;97978.89;;;-1.88;66.01
61359;BME280;47228;46.762;23.598;2023-12-04T03:44:25;97977.51;;;-1.86;66.09
61359;BME280;47228;46.762;23.598;2023-12-04T03:46:53;97978.28;;;-1.85;65.91
61359;BME280;47228;46.762;23.598;2023-12-04T03:49:22;97977.91;;;-1.84;65.82
61359;BME280;47228;46.762;23.598;2023-12-04T03:51:50;97975.21;;;-1.85;65.70
61359;BME280;47228;46.762;23.598;2023-12-04T03:54:18;97972.58;;;-1.85;65.67
61359;BME280;47228;46.762;23.598;2023-12-04T03:56:46;97973.95;;;-1.85;65.46
61359;BME280;47228;46.762;23.598;2023-12-04T03:59:14;97973.91;;;-1.84;65.58
61359;BME280;47228;46.762;23.598;2023-12-04T04:01:43;97973.20;;;-1.84;65.53
61359;BME280;47228;46.762;23.598;2023-12-04T04:04:11;97974.55;;;-1.86;65.31
61359;BME280;47228;46.762;23.598;2023-12-04T04:06:39;97974.00;;;-1.88;65.31
61359;BME280;47228;46.762;23.598;2023-12-04T04:09:07;97976.88;;;-1.87;65.35
61359;BME280;47228;46.762;23.598;2023-12-04T04:11:35;97977.24;;;-1.85;65.47
61359;BME280;47228;46.762;23.598;2023-12-04T04:14:03;97976.73;;;-1.80;65.63
61359;BME280;47228;46.762;23.598;2023-12-04T04:16:35;97979.54;;;-1.75;65.60
61359;BME280;47228;46.762;23.598;2023-12-04T04:19:03;97980.93;;;-1.73;65.75
61359;BME280;47228;46.762;23.598;2023-12-04T04:21:31;97983.98;;;-1.72;65.35
61359;BME280;47228;46.762;23.598;2023-12-04T04:24:00;97984.46;;;-1.71;65.25
61359;BME280;47228;46.762;23.598;2023-12-04T04:26:28;97993.17;;;-1.69;65.28
61359;BME280;47228;46.762;23.598;2023-12-04T04:28:58;97992.73;;;-1.68;65.19
61359;BME280;47228;46.762;23.598;2023-12-04T04:31:26;97990.00;;;-1.69;65.01
61359;BME280;47228;46.762;23.598;2023-12-04T04:33:54;97991.98;;;-1.70;64.81
61359;BME280;47228;46.762;23.598;2023-12-04T04:36:22;97994.34;;;-1.71;64.91
61359;BME280;47228;46.762;23.598;2023-12-04T04:38:51;97995.73;;;-1.71;64.91
61359;BME280;47228;46.762;23.598;2023-12-04T04:41:19;97999.55;;;-1.74;65.16
61359;BME280;47228;46.762;23.598;2023-12-04T04:43:47;97998.11;;;-1.75;65.54
61359;BME280;47228;46.762;23.598;2023-12-04T04:46:15;98000.48;;;-1.74;65.62
61359;BME280;47228;46.762;23.598;2023-12-04T04:48:44;97999.61;;;-1.74;65.87
61359;BME280;47228;46.762;23.598;2023-12-04T04:51:12;97997.94;;;-1.75;66.08
61359;BME280;47228;46.762;23.598;2023-12-04T04:53:40;97999.70;;;-1.75;66.46
61359;BME280;47228;46.762;23.598;2023-12-04T04:56:09;97997.92;;;-1.75;66.34
61359;BME280;47228;46.762;23.598;2023-12-04T04:58:40;97992.05;;;-1.75;66.44
61359;BME280;47228;46.762;23.598;2023-12-04T05:01:10;97995.12;;;-1.72;66.73
61359;BME280;47228;46.762;23.598;2023-12-04T05:03:39;98002.73;;;-1.69;66.97
61359;BME280;47228;46.762;23.598;2023-12-04T05:06:07;98008.72;;;-1.66;67.01
61359;BME280;47228;46.762;23.598;2023-12-04T05:08:36;98012.97;;;-1.62;67.03
61359;BME280;47228;46.762;23.598;2023-12-04T05:11:04;98014.77;;;-1.58;67.22
61359;BME280;47228;46.762;23.598;2023-12-04T05:13:32;98019.67;;;-1.53;67.13
61359;BME280;47228;46.762;23.598;2023-12-04T05:16:00;98024.55;;;-1.53;66.63
61359;BME280;47228;46.762;23.598;2023-12-04T05:18:28;98031.85;;;-1.56;66.59
61359;BME280;47228;46.762;23.598;2023-12-04T05:20:57;98033.95;;;-1.56;66.79
61359;BME280;47228;46.762;23.598;2023-12-04T05:23:25;98033.39;;;-1.56;66.90
61359;BME280;47228;46.762;23.598;2023-12-04T05:25:54;98031.17;;;-1.54;67.21
61359;BME280;47228;46.762;23.598;2023-12-04T05:28:22;98035.45;;;-1.53;67.29
61359;BME280;47228;46.762;23.598;2023-12-04T05:30:50;98036.65;;;-1.52;67.07
61359;BME280;47228;46.762;23.598;2023-12-04T05:33:18;98040.33;;;-1.55;67.11
61359;BME280;47228;46.762;23.598;2023-12-04T05:35:50;98043.37;;;-1.57;67.44
61359;BME280;47228;46.762;23.598;2023-12-04T05:38:21;98042.47;;;-1.59;67.76
61359;BME280;47228;46.762;23.598;2023-12-04T05:40:49;98041.75;;;-1.58;67.68
61359;BME280;47228;46.762;23.598;2023-12-04T05:43:17;98042.81;;;-1.59;67.56
61359;BME280;47228;46.762;23.598;2023-12-04T05:45:49;98045.60;;;-1.59;67.64
61359;BME280;47228;46.762;23.598;2023-12-04T05:48:19;98056.17;;;-1.56;68.07
61359;BME280;47228;46.762;23.598;2023-12-04T05:50:47;98058.79;;;-1.54;67.82
61359;BME280;47228;46.762;23.598;2023-12-04T05:53:16;98057.55;;;-1.53;67.73
61359;BME280;47228;46.762;23.598;2023-12-04T05:55:44;98057.31;;;-1.52;67.64
61359;BME280;47228;46.762;23.598;2023-12-04T05:58:15;98059.95;;;-1.53;67.37
61359;BME280;47228;46.762;23.598;2023-12-04T06:00:44;98060.20;;;-1.54;67.23
61359;BME280;47228;46.762;23.598;2023-12-04T06:03:12;98056.11;;;-1.55;67.32
61359;BME280;47228;46.762;23.598;2023-12-04T06:05:40;98054.98;;;-1.54;67.40
61359;BME280;47228;46.762;23.598;2023-12-04T06:08:24;98058.36;;;-1.52;67.23
61359;BME280;47228;46.762;23.598;2023-12-04T06:10:52;98057.81;;;-1.55;67.14
61359;BME280;47228;46.762;23.598;2023-12-04T06:13:20;98057.17;;;-1.58;67.39
61359;BME280;47228;46.762;23.598;2023-12-04T06:15:52;98054.77;;;-1.61;67.51
61359;BME280;47228;46.762;23.598;2023-12-04T06:18:20;98060.17;;;-1.61;67.70
61359;BME280;47228;46.762;23.598;2023-12-04T06:20:49;98063.14;;;-1.59;67.89
61359;BME280;47228;46.762;23.598;2023-12-04T06:23:17;98066.88;;;-1.57;67.80
61359;BME280;47228;46.762;23.598;2023-12-04T06:25:46;98066.33;;;-1.54;67.95
61359;BME280;47228;46.762;23.598;2023-12-04T06:28:14;98065.11;;;-1.52;67.96
61359;BME280;47228;46.762;23.598;2023-12-04T06:30:43;98074.41;;;-1.51;67.64
61359;BME280;47228;46.762;23.598;2023-12-04T06:33:12;98081.51;;;-1.51;67.34
61359;BME280;47228;46.762;23.598;2023-12-04T06:35:42;98081.16;;;-1.51;67.26
61359;BME280;47228;46.762;23.598;2023-12-04T06:38:14;98084.96;;;-1.50;67.26
61359;BME280;47228;46.762;23.598;2023-12-04T06:40:44;98088.40;;;-1.50;67.39
61359;BME280;47228;46.762;23.598;2023-12-04T06:43:12;98086.09;;;-1.49;67.34
61359;BME280;47228;46.762;23.598;2023-12-04T06:45:41;98083.86;;;-1.50;67.27
61359;BME280;47228;46.762;23.598;2023-12-04T06:48:11;98080.91;;;-1.52;67.18
61359;BME280;47228;46.762;23.598;2023-12-04T06:50:41;98081.05;;;-1.59;66.91
61359;BME280;47228;46.762;23.598;2023-12-04T06:53:09;98090.42;;;-1.61;66.94
61359;BME280;47228;46.762;23.598;2023-12-04T06:55:38;98090.98;;;-1.59;67.39
61359;BME280;47228;46.762;23.598;2023-12-04T06:58:06;98093.87;;;-1.56;67.46
61359;BME280;47228;46.762;23.598;2023-12-04T07:00:34;98090.85;;;-1.53;67.60
61359;BME280;47228;46.762;23.598;2023-12-04T07:03:03;98090.44;;;-1.47;67.94
61359;BME280;47228;46.762;23.598;2023-12-04T07:05:31;98096.23;;;-1.40;67.81
61359;BME280;47228;46.762;23.598;2023-12-04T07:08:00;98095.61;;;-1.36;67.69
61359;BME280;47228;46.762;23.598;2023-12-04T07:10:34;98098.34;;;-1.33;67.28
61359;BME280;47228;46.762;23.598;2023-12-04T07:13:02;98102.13;;;-1.33;66.81
61359;BME280;47228;46.762;23.598;2023-12-04T07:15:30;98101.41;;;-1.34;66.46
61359;BME280;47228;46.762;23.598;2023-12-04T07:17:58;98101.70;;;-1.36;66.33
61359;BME280;47228;46.762;23.598;2023-12-04T07:20:27;98102.33;;;-1.38;66.42
61359;BME280;47228;46.762;23.598;2023-12-04T07:22:55;98098.14;;;-1.37;66.50
61359;BME280;47228;46.762;23.598;2023-12-04T07:25:26;98097.15;;;-1.36;66.51
61359;BME280;47228;46.762;23.598;2023-12-04T07:27:55;98103.24;;;-1.34;66.51
61359;BME280;47228;46.762;23.598;2023-12-04T07:30:28;98104.20;;;-1.32;66.32
61359;BME280;47228;46.762;23.598;2023-12-04T07:32:56;98104.08;;;-1.33;65.88
61359;BME280;47228;46.762;23.598;2023-12-04T07:35:25;98108.63;;;-1.36;65.54
61359;BME280;47228;46.762;23.598;2023-12-04T07:37:54;98109.81;;;-1.38;65.63
61359;BME280;47228;46.762;23.598;2023-12-04T07:40:22;98110.42;;;-1.39;65.58
61359;BME280;47228;46.762;23.598;2023-12-04T07:42:51;98106.36;;;-1.38;65.69
61359;BME280;47228;46.762;23.598;2023-12-04T07:45:19;98107.30;;;-1.37;65.45
61359;BME280;47228;46.762;23.598;2023-12-04T07:47:48;98106.98;;;-1.37;65.56
61359;BME280;47228;46.762;23.598;2023-12-04T07:50:16;98108.55;;;-1.37;65.66
61359;BME280;47228;46.762;23.598;2023-12-04T07:52:47;98114.84;;;-1.35;65.61
61359;BME280;47228;46.762;23.598;2023-12-04T07:55:15;98114.98;;;-1.32;65.69
61359;BME280;47228;46.762;23.598;2023-12-04T07:57:45;98112.55;;;-1.27;65.70
61359;BME280;47228;46.762;23.598;2023-12-04T08:00:15;98112.98;;;-1.24;65.31
61359;BME280;47228;46.762;23.598;2023-12-04T08:02:45;98119.98;;;-1.22;65.09
61359;BME280;47228;46.762;23.598;2023-12-04T08:05:20;98115.45;;;-1.19;64.82
61359;BME280;47228;46.762;23.598;2023-12-04T08:07:48;98114.53;;;-1.16;64.88
61359;BME280;47228;46.762;23.598;2023-12-04T08:10:16;98116.91;;;-1.10;64.89
61359;BME280;47228;46.762;23.598;2023-12-04T08:12:45;98118.16;;;-1.06;64.44
61359;BME280;47228;46.762;23.598;2023-12-04T08:15:14;98118.06;;;-1.04;64.14
61359;BME280;47228;46.762;23.598;2023-12-04T08:17:43;98121.11;;;-1.01;64.20
61359;BME280;47228;46.762;23.598;2023-12-04T08:20:11;98128.66;;;-0.97;64.13
61359;BME280;47228;46.762;23.598;2023-12-04T08:22:51;98128.92;;;-0.93;64.01
61359;BME280;47228;46.762;23.598;2023-12-04T08:25:19;98129.89;;;-0.90;63.86
61359;BME280;47228;46.762;23.598;2023-12-04T08:27:48;98131.11;;;-0.87;63.58
61359;BME280;47228;46.762;23.598;2023-12-04T08:30:18;98131.65;;;-0.88;63.41
61359;BME280;47228;46.762;23.598;2023-12-04T08:32:46;98133.52;;;-0.89;63.11
61359;BME280;47228;46.762;23.598;2023-12-04T08:35:15;98134.38;;;-0.92;63.14
61359;BME280;47228;46.762;23.598;2023-12-04T08:37:43;98136.10;;;-0.92;63.49
61359;BME280;47228;46.762;23.598;2023-12-04T08:40:11;98134.41;;;-0.90;63.50
61359;BME280;47228;46.762;23.598;2023-12-04T08:42:40;98133.87;;;-0.92;63.26
61359;BME280;47228;46.762;23.598;2023-12-04T08:45:09;98129.38;;;-0.92;63.36
61359;BME280;47228;46.762;23.598;2023-12-04T08:47:37;98134.98;;;-0.91;63.27
61359;BME280;47228;46.762;23.598;2023-12-04T08:50:08;98137.42;;;-0.88;63.44
61359;BME280;47228;46.762;23.598;2023-12-04T08:52:37;98137.68;;;-0.85;63.42
61359;BME280;47228;46.762;23.598;2023-12-04T08:55:07;98134.98;;;-0.83;63.00
61359;BME280;47228;46.762;23.598;2023-12-04T08:57:37;98129.24;;;-0.85;62.97
61359;BME280;47228;46.762;23.598;2023-12-04T09:00:08;98132.80;;;-0.89;62.97
61359;BME280;47228;46.762;23.598;2023-12-04T09:02:37;98126.50;;;-0.91;63.00
61359;BME280;47228;46.762;23.598;2023-12-04T09:05:16;98120.61;;;-0.89;62.84
61359;BME280;47228;46.762;23.598;2023-12-04T09:07:44;98115.99;;;-0.88;62.54
61359;BME280;47228;46.762;23.598;2023-12-04T09:10:17;98115.20;;;-0.86;62.58
61359;BME280;47228;46.762;23.598;2023-12-04T09:13:05;98112.73;;;-0.86;62.28
61359;BME280;47228;46.762;23.598;2023-12-04T09:15:33;98113.30;;;-0.84;62.57
61359;BME280;47228;46.762;23.598;2023-12-04T09:18:01;98110.74;;;-0.82;62.58
61359;BME280;47228;46.762;23.598;2023-12-04T09:20:29;98108.83;;;-0.80;62.63
61359;BME280;47228;46.762;23.598;2023-12-04T09:22:58;98111.19;;;-0.76;62.78
61359;BME280;47228;46.762;23.598;2023-12-04T09:25:35;98109.88;;;-0.73;62.70
61359;BME280;47228;46.762;23.598;2023-12-04T09:28:04;98103.86;;;-0.69;62.68
61359;BME280;47228;46.762;23.598;2023-12-04T09:30:34;98100.27;;;-0.65;62.80
61359;BME280;47228;46.762;23.598;2023-12-04T09:33:12;98098.50;;;-0.62;62.64
61359;BME280;47228;46.762;23.598;2023-12-04T09:35:42;98094.30;;;-0.59;62.52
61359;BME280;47228;46.762;23.598;2023-12-04T09:38:11;98091.17;;;-0.57;62.47
61359;BME280;47228;46.762;23.598;2023-12-04T09:40:39;98093.21;;;-0.54;62.52
61359;BME280;47228;46.762;23.598;2023-12-04T09:43:07;98091.75;;;-0.51;62.43
61359;BME280;47228;46.762;23.598;2023-12-04T09:45:36;98083.61;;;-0.49;62.35
61359;BME280;47228;46.762;23.598;2023-12-04T09:48:05;98080.98;;;-0.46;62.39
61359;BME280;47228;46.762;23.598;2023-12-04T09:50:35;98079.45;;;-0.42;62.38
61359;BME280;47228;46.762;23.598;2023-12-04T09:53:04;98072.86;;;-0.40;62.31
61359;BME280;47228;46.762;23.598;2023-12-04T09:55:34;98070.64;;;-0.38;62.32
61359;BME280;47228;46.762;23.598;2023-12-04T09:58:03;98073.16;;;-0.36;62.09
61359;BME280;47228;46.762;23.598;2023-12-04T10:00:32;98068.03;;;-0.36;62.07
61359;BME280;47228;46.762;23.598;2023-12-04T10:03:01;98068.61;;;-0.32;62.35
61359;BME280;47228;46.762;23.598;2023-12-04T10:05:30;98066.81;;;-0.29;62.23
61359;BME280;47228;46.762;23.598;2023-12-04T10:07:58;98066.08;;;-0.28;61.94
61359;BME280;47228;46.762;23.598;2023-12-04T10:10:26;98068.59;;;-0.27;61.81
61359;BME280;47228;46.762;23.598;2023-12-04T10:12:54;98068.78;;;-0.27;61.82
61359;BME280;47228;46.762;23.598;2023-12-04T10:15:23;98068.35;;;-0.26;61.95
61359;BME280;47228;46.762;23.598;2023-12-04T10:17:51;98073.54;;;-0.25;62.04
61359;BME280;47228;46.762;23.598;2023-12-04T10:20:20;98081.44;;;-0.24;62.01
61359;BME280;47228;46.762;23.598;2023-12-04T10:22:58;98082.42;;;-0.21;62.17
61359;BME280;47228;46.762;23.598;2023-12-04T10:25:28;98075.74;;;-0.18;61.96
61359;BME280;47228;46.762;23.598;2023-12-04T10:28:15;98073.02;;;-0.14;61.77
61359;BME280;47228;46.762;23.598;2023-12-04T10:30:44;98067.57;;;-0.11;61.29
61359;BME280;47228;46.762;23.598;2023-12-04T10:33:33;98064.27;;;-0.11;60.79
61359;BME280;47228;46.762;23.598;2023-12-04T10:36:02;98056.02;;;-0.10;60.71
61359;BME280;47228;46.762;23.598;2023-12-04T10:38:31;98058.33;;;-0.13;60.26
61359;BME280;47228;46.762;23.598;2023-12-04T10:41:12;98060.75;;;-0.13;60.10
61359;BME280;47228;46.762;23.598;2023-12-04T10:43:47;98059.42;;;-0.11;59.99
61359;BME280;47228;46.762;23.598;2023-12-04T10:46:30;98056.99;;;-0.09;59.97
61359;BME280;47228;46.762;23.598;2023-12-04T10:48:59;98055.90;;;-0.06;59.72
61359;BME280;47228;46.762;23.598;2023-12-04T10:51:29;98063.08;;;-0.05;59.39
61359;BME280;47228;46.762;23.598;2023-12-04T10:53:58;98059.86;;;0.01;59.19
61359;BME280;47228;46.762;23.598;2023-12-04T10:56:31;98059.02;;;0.10;58.94
61359;BME280;47228;46.762;23.598;2023-12-04T10:59:02;98061.67;;;0.18;58.45
61359;BME280;47228;46.762;23.598;2023-12-04T11:01:32;98064.66;;;0.25;58.00
61359;BME280;47228;46.762;23.598;2023-12-04T11:04:03;98064.64;;;0.30;57.61
61359;BME280;47228;46.762;23.598;2023-12-04T11:06:39;98063.35;;;0.33;57.41
61359;BME280;47228;46.762;23.598;2023-12-04T11:09:09;98066.31;;;0.35;57.04
61359;BME280;47228;46.762;23.598;2023-12-04T11:11:40;98068.86;;;0.38;57.04
61359;BME280;47228;46.762;23.598;2023-12-04T11:14:14;98069.91;;;0.45;57.12
61359;BME280;47228;46.762;23.598;2023-12-04T11:16:57;98068.02;;;0.49;57.00
61359;BME280;47228;46.762;23.598;2023-12-04T11:22:17;98063.27;;;0.54;56.16
61359;BME280;47228;46.762;23.598;2023-12-04T11:24:50;98063.48;;;0.49;55.88
61359;BME280;47228;46.762;23.598;2023-12-04T11:27:20;98058.33;;;0.41;55.49
61359;BME280;47228;46.762;23.598;2023-12-04T11:29:49;98051.61;;;0.36;55.84
61359;BME280;47228;46.762;23.598;2023-12-04T11:32:24;98050.47;;;0.35;55.90
61359;BME280;47228;46.762;23.598;2023-12-04T11:34:58;98040.04;;;0.32;55.92
61359;BME280;47228;46.762;23.598;2023-12-04T11:37:27;98031.39;;;0.31;56.07
61359;BME280;47228;46.762;23.598;2023-12-04T11:39:55;98021.84;;;0.33;56.19
61359;BME280;47228;46.762;23.598;2023-12-04T11:42:24;98009.22;;;0.34;56.42
61359;BME280;47228;46.762;23.598;2023-12-04T11:44:59;98002.64;;;0.36;56.24
61359;BME280;47228;46.762;23.598;2023-12-04T11:47:28;98001.69;;;0.35;56.22
61359;BME280;47228;46.762;23.598;2023-12-04T11:49:57;98000.17;;;0.32;56.48
61359;BME280;47228;46.762;23.598;2023-12-04T11:52:33;97997.19;;;0.30;56.63
61359;BME280;47228;46.762;23.598;2023-12-04T11:55:06;97987.71;;;0.31;56.62
61359;BME280;47228;46.762;23.598;2023-12-04T11:57:36;97979.66;;;0.32;56.36
61359;BME280;47228;46.762;23.598;2023-12-04T12:03:00;97987.38;;;0.31;56.08
61359;BME280;47228;46.762;23.598;2023-12-04T12:05:50;97988.88;;;0.29;55.93
61359;BME280;47228;46.762;23.598;2023-12-04T12:08:22;97996.97;;;0.26;55.89
61359;BME280;47228;46.762;23.598;2023-12-04T12:10:51;98000.94;;;0.22;55.75
61359;BME280;47228;46.762;23.598;2023-12-04T12:13:21;98000.33;;;0.21;56.22
61359;BME280;47228;46.762;23.598;2023-12-04T12:15:51;98001.39;;;0.21;56.25
61359;BME280;47228;46.762;23.598;2023-12-04T12:18:21;97998.80;;;0.21;56.35
61359;BME280;47228;46.762;23.598;2023-12-04T12:20:51;97998.66;;;0.20;56.23
61359;BME280;47228;46.762;23.598;2023-12-04T12:23:22;97997.09;;;0.18;56.44
61359;BME280;47228;46.762;23.598;2023-12-04T12:25:52;97995.67;;;0.14;56.27
61359;BME280;47228;46.762;23.598;2023-12-04T12:28:20;97996.41;;;0.11;55.90
61359;BME280;47228;46.762;23.598;2023-12-04T12:30:49;97998.65;;;0.07;55.73
61359;BME280;47228;46.762;23.598;2023-12-04T12:33:17;97996.34;;;0.03;55.83
61359;BME280;47228;46.762;23.598;2023-12-04T12:35:47;97991.02;;;-0.00;55.83
61359;BME280;47228;46.762;23.598;2023-12-04T12:38:27;97992.23;;;-0.03;56.38
61359;BME280;47228;46.762;23.598;2023-12-04T12:40:55;97985.20;;;-0.04;56.71
61359;BME280;47228;46.762;23.598;2023-12-04T12:43:23;97982.30;;;-0.02;56.93
61359;BME280;47228;46.762;23.598;2023-12-04T12:45:52;97982.66;;;-0.03;56.63
61359;BME280;47228;46.762;23.598;2023-12-04T12:48:21;97985.34;;;-0.06;56.32
61359;BME280;47228;46.762;23.598;2023-12-04T12:50:50;97988.33;;;-0.08;56.46
61359;BME280;47228;46.762;23.598;2023-12-04T12:53:19;97984.98;;;-0.10;56.63
61359;BME280;47228;46.762;23.598;2023-12-04T12:55:48;97990.90;;;-0.10;56.56
61359;BME280;47228;46.762;23.598;2023-12-04T12:58:17;97989.95;;;-0.11;56.55
61359;BME280;47228;46.762;23.598;2023-12-04T13:00:49;97987.41;;;-0.12;56.26
61359;BME280;47228;46.762;23.598;2023-12-04T13:03:18;97982.15;;;-0.14;56.53
61359;BME280;47228;46.762;23.598;2023-12-04T13:05:47;97981.20;;;-0.16;56.72
61359;BME280;47228;46.762;23.598;2023-12-04T13:08:16;97982.07;;;-0.18;56.83